sensor_id;sensor_type;location;lat;lon;timestamp;pressure;altitude;pressure_sealevel;temperature;humidity
41140;BME280;26881;48.784;9.192;2023-02-28T00:03:50;99330.91;;;1.05;51.14
41140;BME280;26881;48.784;9.192;2023-02-28T00:09:12;99328.34;;;1.03;51.43
41140;BME280;26881;48.784;9.192;2023-02-28T00:14:34;99330.84;;;1.13;51.20
41140;BME280;26881;48.784;9.192;2023-02-28T00:19:55;99322.38;;;0.95;51.45
41140;BME280;26881;48.784;9.192;2023-02-28T00:25:23;99327.38;;;1.17;50.58
41140;BME280;26881;48.784;9.192;2023-02-28T00:30:45;99333.59;;;0.88;51.70
41140;BME280;26881;48.784;9.192;2023-02-28T00:36:09;99325.03;;;0.86;51.77
41140;BME280;26881;48.784;9.192;2023-02-28T00:41:31;99326.66;;;0.98;51.55
41140;BME280;26881;48.784;9.192;2023-02-28T00:46:53;99334.50;;;0.84;51.90
41140;BME280;26881;48.784;9.192;2023-02-28T00:52:15;99338.81;;;0.82;52.50
41140;BME280;26881;48.784;9.192;2023-02-28T00:57:37;99325.75;;;1.02;51.95
41140;BME280;26881;48.784;9.192;2023-02-28T01:02:59;99328.47;;;0.87;52.32
41140;BME280;26881;48.784;9.192;2023-02-28T01:08:21;99331.09;;;0.82;53.55
41140;BME280;26881;48.784;9.192;2023-02-28T01:13:45;99325.19;;;0.68;54.03
41140;BME280;26881;48.784;9.192;2023-02-28T01:19:07;99324.22;;;0.82;53.88
41140;BME280;26881;48.784;9.192;2023-02-28T01:24:30;99323.41;;;0.76;53.84
41140;BME280;26881;48.784;9.192;2023-02-28T01:29:52;99326.94;;;0.58;54.35
41140;BME280;26881;48.784;9.192;2023-02-28T01:35:14;99316.72;;;0.50;55.61
41140;BME280;26881;48.784;9.192;2023-02-28T01:40:36;99325.13;;;0.75;55.23
41140;BME280;26881;48.784;9.192;2023-02-28T01:45:58;99327.84;;;0.54;55.55
41140;BME280;26881;48.784;9.192;2023-02-28T01:51:33;99319.28;;;0.49;56.26
41140;BME280;26881;48.784;9.192;2023-02-28T01:56:59;99309.03;;;0.46;57.12
41140;BME280;26881;48.784;9.192;2023-02-28T02:02:22;99306.28;;;0.69;56.04
41140;BME280;26881;48.784;9.192;2023-02-28T02:07:49;99305.50;;;0.56;56.23
41140;BME280;26881;48.784;9.192;2023-02-28T02:13:30;99303.75;;;0.66;55.76
41140;BME280;26881;48.784;9.192;2023-02-28T02:35:56;99285.59;;;0.81;57.07
41140;BME280;26881;48.784;9.192;2023-02-28T02:46:48;99278.81;;;0.69;57.58
41140;BME280;26881;48.784;9.192;2023-02-28T02:52:15;99282.34;;;0.56;58.79
41140;BME280;26881;48.784;9.192;2023-02-28T02:57:50;99283.25;;;0.52;59.29
41140;BME280;26881;48.784;9.192;2023-02-28T03:03:13;99279.84;;;0.50;59.41
41140;BME280;26881;48.784;9.192;2023-02-28T03:08:39;99273.63;;;0.74;58.44
41140;BME280;26881;48.784;9.192;2023-02-28T03:14:09;99284.09;;;0.52;58.95
41140;BME280;26881;48.784;9.192;2023-02-28T03:19:47;99287.63;;;0.42;59.95
41140;BME280;26881;48.784;9.192;2023-02-28T03:31:18;99282.47;;;0.42;60.66
41140;BME280;26881;48.784;9.192;2023-02-28T03:36:47;99277.16;;;0.62;60.20
41140;BME280;26881;48.784;9.192;2023-02-28T03:42:16;99271.09;;;0.69;59.67
41140;BME280;26881;48.784;9.192;2023-02-28T03:47:50;99265.97;;;0.65;60.76
41140;BME280;26881;48.784;9.192;2023-02-28T03:53:30;99277.13;;;0.68;60.19
41140;BME280;26881;48.784;9.192;2023-02-28T03:59:14;99272.72;;;0.81;59.93
41140;BME280;26881;48.784;9.192;2023-02-28T04:04:40;99275.50;;;0.56;60.88
41140;BME280;26881;48.784;9.192;2023-02-28T04:10:06;99281.34;;;0.75;61.01
41140;BME280;26881;48.784;9.192;2023-02-28T04:15:28;99290.72;;;0.82;60.50
41140;BME280;26881;48.784;9.192;2023-02-28T04:20:50;99284.09;;;0.54;61.49
41140;BME280;26881;48.784;9.192;2023-02-28T04:26:12;99278.84;;;0.66;61.56
41140;BME280;26881;48.784;9.192;2023-02-28T04:31:34;99284.06;;;0.58;61.74
41140;BME280;26881;48.784;9.192;2023-02-28T04:36:56;99277.16;;;0.63;61.48
41140;BME280;26881;48.784;9.192;2023-02-28T04:42:33;99278.00;;;0.64;61.15
41140;BME280;26881;48.784;9.192;2023-02-28T04:47:56;99281.31;;;0.78;61.05
41140;BME280;26881;48.784;9.192;2023-02-28T04:53:19;99274.25;;;1.05;60.73
41140;BME280;26881;48.784;9.192;2023-02-28T04:58:41;99275.13;;;0.99;61.00
41140;BME280;26881;48.784;9.192;2023-02-28T05:04:04;99276.16;;;0.77;61.19
41140;BME280;26881;48.784;9.192;2023-02-28T05:09:26;99281.31;;;0.77;61.54
41140;BME280;26881;48.784;9.192;2023-02-28T05:14:48;99285.59;;;0.81;61.68
41140;BME280;26881;48.784;9.192;2023-02-28T05:20:10;99278.47;;;1.12;60.68
41140;BME280;26881;48.784;9.192;2023-02-28T05:25:40;99282.97;;;0.89;61.17
41140;BME280;26881;48.784;9.192;2023-02-28T05:31:02;99285.59;;;0.84;61.84
41140;BME280;26881;48.784;9.192;2023-02-28T05:36:24;99281.13;;;1.01;61.31
41140;BME280;26881;48.784;9.192;2023-02-28T05:41:45;99286.22;;;1.08;60.80
41140;BME280;26881;48.784;9.192;2023-02-28T05:47:07;99287.88;;;1.12;61.56
41140;BME280;26881;48.784;9.192;2023-02-28T05:52:29;99293.97;;;1.08;62.32
41140;BME280;26881;48.784;9.192;2023-02-28T05:57:54;99296.50;;;1.11;62.17
41140;BME280;26881;48.784;9.192;2023-02-28T06:03:16;99299.16;;;1.03;62.00
41140;BME280;26881;48.784;9.192;2023-02-28T06:08:37;99293.78;;;1.26;61.21
41140;BME280;26881;48.784;9.192;2023-02-28T06:14:00;99293.88;;;1.15;60.85
41140;BME280;26881;48.784;9.192;2023-02-28T06:19:22;99306.16;;;0.87;61.92
41140;BME280;26881;48.784;9.192;2023-02-28T06:24:47;99307.81;;;0.96;61.80
41140;BME280;26881;48.784;9.192;2023-02-28T06:30:10;99309.41;;;1.08;62.16
41140;BME280;26881;48.784;9.192;2023-02-28T06:35:32;99321.44;;;1.05;62.26
41140;BME280;26881;48.784;9.192;2023-02-28T06:40:55;99324.88;;;1.08;61.77
41140;BME280;26881;48.784;9.192;2023-02-28T06:46:18;99325.66;;;1.14;61.77
41140;BME280;26881;48.784;9.192;2023-02-28T06:51:43;99322.09;;;1.31;61.27
41140;BME280;26881;48.784;9.192;2023-02-28T06:57:07;99332.53;;;1.15;60.72
41140;BME280;26881;48.784;9.192;2023-02-28T07:02:28;99328.19;;;1.19;61.24
41140;BME280;26881;48.784;9.192;2023-02-28T07:07:50;99333.16;;;1.40;60.07
41140;BME280;26881;48.784;9.192;2023-02-28T07:13:14;99339.34;;;1.22;60.57
41140;BME280;26881;48.784;9.192;2023-02-28T07:18:36;99336.75;;;1.24;61.31
41140;BME280;26881;48.784;9.192;2023-02-28T07:23:58;99342.00;;;1.13;61.46
41140;BME280;26881;48.784;9.192;2023-02-28T07:29:20;99347.91;;;1.26;61.21
41140;BME280;26881;48.784;9.192;2023-02-28T07:34:42;99350.56;;;1.17;61.31
41140;BME280;26881;48.784;9.192;2023-02-28T07:40:06;99342.72;;;1.29;61.22
41140;BME280;26881;48.784;9.192;2023-02-28T07:45:32;99349.38;;;1.50;60.15
41140;BME280;26881;48.784;9.192;2023-02-28T07:50:57;99354.59;;;1.45;59.31
41140;BME280;26881;48.784;9.192;2023-02-28T07:56:19;99354.59;;;1.44;58.86
41140;BME280;26881;48.784;9.192;2023-02-28T08:01:40;99360.59;;;1.44;57.66
41140;BME280;26881;48.784;9.192;2023-02-28T08:07:02;99354.41;;;1.62;58.26
41140;BME280;26881;48.784;9.192;2023-02-28T08:12:24;99358.63;;;1.71;57.91
41140;BME280;26881;48.784;9.192;2023-02-28T08:17:46;99366.34;;;1.71;56.99
41140;BME280;26881;48.784;9.192;2023-02-28T08:23:07;99364.75;;;1.59;56.47
41140;BME280;26881;48.784;9.192;2023-02-28T08:28:29;99355.91;;;1.83;55.96
41140;BME280;26881;48.784;9.192;2023-02-28T08:33:51;99364.53;;;1.79;56.75
41140;BME280;26881;48.784;9.192;2023-02-28T08:39:14;99361.97;;;1.79;56.02
41140;BME280;26881;48.784;9.192;2023-02-28T08:44:36;99368.66;;;1.96;55.87
41140;BME280;26881;48.784;9.192;2023-02-28T08:49:58;99369.53;;;1.95;56.43
41140;BME280;26881;48.784;9.192;2023-02-28T08:55:19;99375.75;;;1.77;56.34
41140;BME280;26881;48.784;9.192;2023-02-28T09:00:41;99381.66;;;1.88;56.65
41140;BME280;26881;48.784;9.192;2023-02-28T09:06:03;99376.56;;;1.82;56.43
41140;BME280;26881;48.784;9.192;2023-02-28T09:11:26;99378.13;;;1.95;56.50
41140;BME280;26881;48.784;9.192;2023-02-28T09:16:48;99382.47;;;1.92;55.57
41140;BME280;26881;48.784;9.192;2023-02-28T09:22:10;99378.19;;;1.90;56.67
41140;BME280;26881;48.784;9.192;2023-02-28T09:27:32;99391.84;;;1.99;55.87
41140;BME280;26881;48.784;9.192;2023-02-28T09:32:54;99383.28;;;1.98;55.51
41140;BME280;26881;48.784;9.192;2023-02-28T09:38:17;99388.91;;;2.29;54.72
41140;BME280;26881;48.784;9.192;2023-02-28T09:43:43;99392.44;;;2.21;54.55
41140;BME280;26881;48.784;9.192;2023-02-28T09:49:10;99403.66;;;2.18;54.24
41140;BME280;26881;48.784;9.192;2023-02-28T09:54:33;99395.97;;;2.14;54.68
41140;BME280;26881;48.784;9.192;2023-02-28T10:00:05;99399.22;;;2.29;54.61
41140;BME280;26881;48.784;9.192;2023-02-28T10:05:37;99391.50;;;2.29;54.28
41140;BME280;26881;48.784;9.192;2023-02-28T10:11:07;99392.09;;;2.48;54.15
41140;BME280;26881;48.784;9.192;2023-02-28T10:16:56;99401.41;;;2.60;53.94
41140;BME280;26881;48.784;9.192;2023-02-28T10:22:28;99412.88;;;2.38;54.39
41140;BME280;26881;48.784;9.192;2023-02-28T10:28:00;99417.06;;;2.48;54.04
41140;BME280;26881;48.784;9.192;2023-02-28T10:33:32;99416.97;;;2.54;53.39
41140;BME280;26881;48.784;9.192;2023-02-28T10:38:55;99411.88;;;2.51;53.20
41140;BME280;26881;48.784;9.192;2023-02-28T10:44:20;99414.03;;;2.82;53.24
41140;BME280;26881;48.784;9.192;2023-02-28T10:49:49;99408.72;;;2.91;52.82
41140;BME280;26881;48.784;9.192;2023-02-28T10:55:23;99404.53;;;2.85;52.79
41140;BME280;26881;48.784;9.192;2023-02-28T11:00:46;99399.84;;;3.10;52.26
41140;BME280;26881;48.784;9.192;2023-02-28T11:06:15;99399.78;;;3.15;52.72
41140;BME280;26881;48.784;9.192;2023-02-28T11:11:43;99395.88;;;3.42;52.73
41140;BME280;26881;48.784;9.192;2023-02-28T11:17:33;99399.94;;;3.57;51.42
41140;BME280;26881;48.784;9.192;2023-02-28T11:22:58;99377.00;;;3.85;50.92
41140;BME280;26881;48.784;9.192;2023-02-28T11:28:32;99369.50;;;4.16;49.63
41140;BME280;26881;48.784;9.192;2023-02-28T11:33:55;99372.34;;;4.04;49.59
41140;BME280;26881;48.784;9.192;2023-02-28T11:39:18;99368.38;;;4.28;49.72
41140;BME280;26881;48.784;9.192;2023-02-28T11:44:43;99364.78;;;4.35;48.99
41140;BME280;26881;48.784;9.192;2023-02-28T12:13:32;99355.66;;;4.59;50.21
41140;BME280;26881;48.784;9.192;2023-02-28T12:19:16;99348.44;;;4.72;47.77
41140;BME280;26881;48.784;9.192;2023-02-28T12:25:02;99346.31;;;4.90;47.75
41140;BME280;26881;48.784;9.192;2023-02-28T12:30:37;99331.13;;;5.10;47.42
41140;BME280;26881;48.784;9.192;2023-02-28T12:36:05;99333.22;;;5.30;46.54
41140;BME280;26881;48.784;9.192;2023-02-28T12:47:04;99316.38;;;5.78;45.49
41140;BME280;26881;48.784;9.192;2023-02-28T12:58:41;99309.25;;;5.86;45.32
41140;BME280;26881;48.784;9.192;2023-02-28T13:04:27;99304.75;;;5.93;45.20
41140;BME280;26881;48.784;9.192;2023-02-28T13:09:57;99307.03;;;5.72;45.81
41140;BME280;26881;48.784;9.192;2023-02-28T13:15:27;99300.69;;;5.82;45.90
41140;BME280;26881;48.784;9.192;2023-02-28T13:20:50;99283.25;;;5.87;44.92
41140;BME280;26881;48.784;9.192;2023-02-28T13:26:12;99282.00;;;6.02;45.53
41140;BME280;26881;48.784;9.192;2023-02-28T13:42:51;99286.09;;;6.09;44.85
41140;BME280;26881;48.784;9.192;2023-02-28T13:48:24;99294.00;;;6.06;44.81
41140;BME280;26881;48.784;9.192;2023-02-28T13:54:03;99291.81;;;5.89;44.87
41140;BME280;26881;48.784;9.192;2023-02-28T14:05:15;99290.63;;;6.03;44.85
41140;BME280;26881;48.784;9.192;2023-02-28T14:10:44;99289.31;;;6.18;45.41
41140;BME280;26881;48.784;9.192;2023-02-28T14:16:08;99278.84;;;6.21;44.32
41140;BME280;26881;48.784;9.192;2023-02-28T14:21:35;99276.19;;;6.22;44.80
41140;BME280;26881;48.784;9.192;2023-02-28T14:27:11;99282.31;;;6.20;44.28
41140;BME280;26881;48.784;9.192;2023-02-28T14:32:54;99281.06;;;6.33;44.68
41140;BME280;26881;48.784;9.192;2023-02-28T14:38:24;99278.28;;;6.39;44.24
41140;BME280;26881;48.784;9.192;2023-02-28T14:43:53;99278.97;;;6.46;44.75
41140;BME280;26881;48.784;9.192;2023-02-28T14:49:27;99283.94;;;6.52;43.72
41140;BME280;26881;48.784;9.192;2023-02-28T14:54:54;99278.97;;;6.72;44.79
41140;BME280;26881;48.784;9.192;2023-02-28T15:00:32;99283.56;;;6.64;44.81
41140;BME280;26881;48.784;9.192;2023-02-28T15:05:56;99295.66;;;6.65;44.23
41140;BME280;26881;48.784;9.192;2023-02-28T15:11:19;99290.88;;;6.53;44.13
41140;BME280;26881;48.784;9.192;2023-02-28T15:16:45;99289.38;;;6.44;44.72
41140;BME280;26881;48.784;9.192;2023-02-28T15:22:14;99300.78;;;6.40;45.07
41140;BME280;26881;48.784;9.192;2023-02-28T15:27:44;99289.78;;;6.32;44.92
41140;BME280;26881;48.784;9.192;2023-02-28T15:38:36;99293.97;;;6.36;44.72
41140;BME280;26881;48.784;9.192;2023-02-28T15:44:33;99301.16;;;6.28;45.16
41140;BME280;26881;48.784;9.192;2023-02-28T15:49:59;99290.84;;;6.25;45.73
41140;BME280;26881;48.784;9.192;2023-02-28T15:55:26;99295.09;;;6.27;45.64
41140;BME280;26881;48.784;9.192;2023-02-28T16:01:07;99306.38;;;6.26;45.51
41140;BME280;26881;48.784;9.192;2023-02-28T16:06:36;99305.09;;;6.11;45.99
41140;BME280;26881;48.784;9.192;2023-02-28T16:12:00;99307.25;;;5.97;45.47
41140;BME280;26881;48.784;9.192;2023-02-28T16:17:29;99312.38;;;5.99;46.38
41140;BME280;26881;48.784;9.192;2023-02-28T16:22:51;99312.69;;;5.86;46.30
41140;BME280;26881;48.784;9.192;2023-02-28T16:28:23;99313.50;;;5.88;46.31
41140;BME280;26881;48.784;9.192;2023-02-28T16:33:47;99317.31;;;5.75;46.66
41140;BME280;26881;48.784;9.192;2023-02-28T16:39:09;99327.38;;;5.55;46.48
41140;BME280;26881;48.784;9.192;2023-02-28T16:44:33;99333.16;;;5.66;47.27
41140;BME280;26881;48.784;9.192;2023-02-28T16:49:55;99339.16;;;5.68;46.70
41140;BME280;26881;48.784;9.192;2023-02-28T16:55:18;99342.69;;;5.65;47.38
41140;BME280;26881;48.784;9.192;2023-02-28T17:00:40;99350.69;;;5.58;47.86
41140;BME280;26881;48.784;9.192;2023-02-28T17:06:04;99348.13;;;5.55;48.39
41140;BME280;26881;48.784;9.192;2023-02-28T17:11:26;99359.75;;;5.41;47.82
41140;BME280;26881;48.784;9.192;2023-02-28T17:16:49;99361.63;;;5.36;48.20
41140;BME280;26881;48.784;9.192;2023-02-28T17:22:11;99366.00;;;5.33;48.43
41140;BME280;26881;48.784;9.192;2023-02-28T17:27:32;99378.38;;;5.21;48.45
41140;BME280;26881;48.784;9.192;2023-02-28T17:32:55;99374.97;;;5.19;49.10
41140;BME280;26881;48.784;9.192;2023-02-28T17:38:18;99385.03;;;4.96;49.69
41140;BME280;26881;48.784;9.192;2023-02-28T17:43:40;99398.09;;;4.93;49.33
41140;BME280;26881;48.784;9.192;2023-02-28T17:49:02;99399.78;;;4.94;49.70
41140;BME280;26881;48.784;9.192;2023-02-28T17:54:24;99405.44;;;4.72;49.76
41140;BME280;26881;48.784;9.192;2023-02-28T17:59:46;99411.88;;;4.54;50.83
41140;BME280;26881;48.784;9.192;2023-02-28T18:05:08;99408.81;;;4.35;51.12
41140;BME280;26881;48.784;9.192;2023-02-28T18:10:31;99412.28;;;4.34;51.91
41140;BME280;26881;48.784;9.192;2023-02-28T18:15:54;99407.31;;;4.25;52.21
41140;BME280;26881;48.784;9.192;2023-02-28T18:21:16;99411.75;;;4.17;52.50
41140;BME280;26881;48.784;9.192;2023-02-28T18:26:39;99399.78;;;4.13;52.67
41140;BME280;26881;48.784;9.192;2023-02-28T18:32:01;99406.81;;;4.05;52.98
41140;BME280;26881;48.784;9.192;2023-02-28T18:37:23;99410.31;;;4.04;52.92
41140;BME280;26881;48.784;9.192;2023-02-28T18:42:44;99414.06;;;3.87;53.07
41140;BME280;26881;48.784;9.192;2023-02-28T18:48:06;99421.13;;;3.77;53.61
41140;BME280;26881;48.784;9.192;2023-02-28T18:53:28;99416.09;;;3.68;53.55
41140;BME280;26881;48.784;9.192;2023-02-28T18:58:51;99412.13;;;3.49;53.88
41140;BME280;26881;48.784;9.192;2023-02-28T19:04:13;99404.22;;;3.59;54.37
41140;BME280;26881;48.784;9.192;2023-02-28T19:09:35;99401.09;;;3.39;54.69
41140;BME280;26881;48.784;9.192;2023-02-28T19:14:57;99416.06;;;3.20;55.50
41140;BME280;26881;48.784;9.192;2023-02-28T19:20:19;99419.69;;;3.07;56.00
41140;BME280;26881;48.784;9.192;2023-02-28T19:25:41;99417.75;;;3.21;55.46
41140;BME280;26881;48.784;9.192;2023-02-28T19:31:04;99418.78;;;3.09;56.10
41140;BME280;26881;48.784;9.192;2023-02-28T19:36:32;99424.22;;;2.92;56.55
41140;BME280;26881;48.784;9.192;2023-02-28T19:41:54;99422.53;;;2.90;56.67
41140;BME280;26881;48.784;9.192;2023-02-28T19:47:16;99422.47;;;2.93;56.97
41140;BME280;26881;48.784;9.192;2023-02-28T19:52:38;99425.84;;;2.98;56.98
41140;BME280;26881;48.784;9.192;2023-02-28T19:58:05;99426.72;;;2.99;56.61
41140;BME280;26881;48.784;9.192;2023-02-28T20:03:27;99429.63;;;2.76;57.11
41140;BME280;26881;48.784;9.192;2023-02-28T20:08:49;99424.53;;;2.69;58.03
41140;BME280;26881;48.784;9.192;2023-02-28T20:14:12;99416.84;;;2.65;57.57
41140;BME280;26881;48.784;9.192;2023-02-28T20:19:38;99412.47;;;2.71;57.29
41140;BME280;26881;48.784;9.192;2023-02-28T20:25:00;99416.97;;;2.56;58.37
41140;BME280;26881;48.784;9.192;2023-02-28T20:30:22;99415.09;;;2.67;57.47
41140;BME280;26881;48.784;9.192;2023-02-28T20:35:45;99414.34;;;2.60;57.68
41140;BME280;26881;48.784;9.192;2023-02-28T20:41:07;99418.41;;;2.77;57.39
41140;BME280;26881;48.784;9.192;2023-02-28T20:46:29;99409.94;;;2.68;57.97
41140;BME280;26881;48.784;9.192;2023-02-28T20:51:52;99411.81;;;2.56;57.71
41140;BME280;26881;48.784;9.192;2023-02-28T20:57:14;99409.03;;;2.69;57.28
41140;BME280;26881;48.784;9.192;2023-02-28T21:02:36;99412.75;;;2.50;58.13
41140;BME280;26881;48.784;9.192;2023-02-28T21:07:57;99413.56;;;2.53;58.10
41140;BME280;26881;48.784;9.192;2023-02-28T21:13:19;99432.56;;;2.48;57.78
41140;BME280;26881;48.784;9.192;2023-02-28T21:18:41;99430.06;;;2.42;57.92
41140;BME280;26881;48.784;9.192;2023-02-28T21:24:04;99422.34;;;2.39;57.91
41140;BME280;26881;48.784;9.192;2023-02-28T21:29:26;99424.00;;;2.44;57.81
41140;BME280;26881;48.784;9.192;2023-02-28T21:34:48;99407.66;;;2.44;58.35
41140;BME280;26881;48.784;9.192;2023-02-28T21:40:11;99411.03;;;2.49;57.78
41140;BME280;26881;48.784;9.192;2023-02-28T21:45:33;99413.00;;;2.28;58.20
41140;BME280;26881;48.784;9.192;2023-02-28T21:50:58;99408.03;;;2.13;58.94
41140;BME280;26881;48.784;9.192;2023-02-28T21:56:23;99411.50;;;2.09;58.86
41140;BME280;26881;48.784;9.192;2023-02-28T22:01:48;99414.94;;;2.11;58.73
41140;BME280;26881;48.784;9.192;2023-02-28T22:07:11;99409.72;;;2.17;58.90
41140;BME280;26881;48.784;9.192;2023-02-28T22:12:33;99404.72;;;2.02;59.36
41140;BME280;26881;48.784;9.192;2023-02-28T22:17:54;99402.09;;;2.06;59.11
41140;BME280;26881;48.784;9.192;2023-02-28T22:23:16;99399.53;;;2.03;59.21
41140;BME280;26881;48.784;9.192;2023-02-28T22:28:38;99405.56;;;2.02;59.38
41140;BME280;26881;48.784;9.192;2023-02-28T22:34:06;99407.28;;;2.02;59.23
41140;BME280;26881;48.784;9.192;2023-02-28T22:39:29;99408.19;;;1.99;59.83
41140;BME280;26881;48.784;9.192;2023-02-28T22:44:51;99406.41;;;2.06;59.27
41140;BME280;26881;48.784;9.192;2023-02-28T22:50:12;99415.94;;;1.98;59.63
41140;BME280;26881;48.784;9.192;2023-02-28T22:55:34;99415.09;;;1.96;59.18
41140;BME280;26881;48.784;9.192;2023-02-28T23:01:07;99402.88;;;2.13;59.26
41140;BME280;26881;48.784;9.192;2023-02-28T23:06:37;99408.13;;;2.04;59.44
41140;BME280;26881;48.784;9.192;2023-02-28T23:12:02;99407.19;;;2.09;59.04
41140;BME280;26881;48.784;9.192;2023-02-28T23:17:24;99403.06;;;1.95;59.34
41140;BME280;26881;48.784;9.192;2023-02-28T23:22:46;99399.59;;;1.96;59.38
41140;BME280;26881;48.784;9.192;2023-02-28T23:28:10;99403.03;;;2.01;58.91
41140;BME280;26881;48.784;9.192;2023-02-28T23:33:32;99410.13;;;1.79;60.22
41140;BME280;26881;48.784;9.192;2023-02-28T23:38:54;99407.66;;;1.68;60.68
41140;BME280;26881;48.784;9.192;2023-02-28T23:44:16;99403.53;;;1.52;61.03
41140;BME280;26881;48.784;9.192;2023-02-28T23:49:39;99413.91;;;1.42;61.40
41140;BME280;26881;48.784;9.192;2023-02-28T23:55:00;99403.84;;;1.09;62.55
